createdAt,value
2022-09-22T00:04:42.656Z,100.00
2022-09-22T00:09:44.378Z,100.00
2022-09-22T00:14:46.006Z,100.00
2022-09-22T00:19:47.650Z,100.00
2022-09-22T00:24:49.257Z,100.00
2022-09-22T00:29:51.556Z,100.00
2022-09-22T00:34:53.174Z,100.00
2022-09-22T00:39:54.847Z,100.00
2022-09-22T00:44:56.464Z,100.00
2022-09-22T00:50:07.023Z,100.00
2022-09-22T00:55:15.543Z,100.00
2022-09-22T01:00:17.393Z,100.00
2022-09-22T01:05:19.041Z,100.00
2022-09-22T01:10:20.744Z,100.00
2022-09-22T01:15:32.486Z,100.00
2022-09-22T01:20:56.175Z,100.00
2022-09-22T01:26:31.258Z,100.00
2022-09-22T01:31:50.622Z,100.00
2022-09-22T01:37:02.730Z,100.00
2022-09-22T01:42:11.736Z,100.00
2022-09-22T01:47:22.076Z,100.00
2022-09-22T01:52:26.887Z,100.00
2022-09-22T01:57:37.506Z,100.00
2022-09-22T02:02:53.124Z,100.00
2022-09-22T02:07:54.854Z,100.00
2022-09-22T02:12:56.483Z,100.00
2022-09-22T02:18:02.497Z,100.00
2022-09-22T02:23:04.116Z,100.00
2022-09-22T02:28:05.791Z,100.00
2022-09-22T02:33:07.468Z,100.00
2022-09-22T02:38:15.483Z,100.00
2022-09-22T02:43:18.963Z,100.00
2022-09-22T02:48:24.990Z,100.00
2022-09-22T02:53:26.664Z,100.00
2022-09-22T02:58:28.283Z,100.00
2022-09-22T03:03:29.928Z,100.00
2022-09-22T03:08:31.532Z,100.00
2022-09-22T03:13:33.114Z,100.00
2022-09-22T03:18:34.811Z,100.00
2022-09-22T03:23:36.432Z,100.00
2022-09-22T03:28:38.058Z,100.00
2022-09-22T03:33:39.683Z,100.00
2022-09-22T03:38:41.290Z,100.00
2022-09-22T03:43:42.886Z,100.00
2022-09-22T03:48:45.442Z,100.00
2022-09-22T03:53:47.189Z,100.00
2022-09-22T03:58:49.660Z,100.00
2022-09-22T04:03:51.277Z,100.00
2022-09-22T04:08:52.900Z,100.00
2022-09-22T04:13:54.521Z,100.00
2022-09-22T04:18:56.237Z,100.00
2022-09-22T04:23:57.895Z,100.00
2022-09-22T04:28:59.615Z,100.00
2022-09-22T04:34:04.243Z,100.00
2022-09-22T04:39:09.054Z,100.00
2022-09-22T04:44:10.719Z,100.00
2022-09-22T04:49:15.940Z,100.00
2022-09-22T04:54:17.563Z,100.00
2022-09-22T04:59:19.191Z,100.00
2022-09-22T05:04:21.065Z,100.00
2022-09-22T05:09:22.770Z,100.00
2022-09-22T05:14:26.536Z,100.00
2022-09-22T05:19:28.260Z,100.00
2022-09-22T05:24:30.278Z,100.00
2022-09-22T05:29:31.903Z,100.00
2022-09-22T05:34:33.511Z,100.00
2022-09-22T05:39:35.116Z,100.00
2022-09-22T05:44:36.720Z,100.00
2022-09-22T05:49:38.382Z,100.00
2022-09-22T05:54:40.012Z,100.00
2022-09-22T05:59:41.632Z,100.00
2022-09-22T06:04:43.262Z,100.00
2022-09-22T06:09:44.884Z,100.00
2022-09-22T06:14:46.543Z,100.00
2022-09-22T06:19:50.168Z,100.00
2022-09-22T06:24:51.805Z,100.00
2022-09-22T06:29:53.438Z,100.00
2022-09-22T06:34:56.041Z,100.00
2022-09-22T06:39:57.660Z,100.00
2022-09-22T06:44:59.275Z,100.00
2022-09-22T06:50:05.498Z,100.00
2022-09-22T06:55:07.532Z,100.00
2022-09-22T07:00:09.824Z,100.00
2022-09-22T07:05:11.738Z,100.00
2022-09-22T07:10:13.399Z,100.00
2022-09-22T07:15:15.173Z,100.00
2022-09-22T07:20:17.726Z,100.00
2022-09-22T07:25:19.339Z,100.00
2022-09-22T07:30:24.097Z,100.00
2022-09-22T07:35:28.271Z,100.00
2022-09-22T07:40:29.965Z,100.00
2022-09-22T07:45:31.591Z,100.00
2022-09-22T07:50:33.273Z,100.00
2022-09-22T07:55:36.639Z,100.00
2022-09-22T08:00:38.324Z,100.00
2022-09-22T08:05:40.735Z,100.00
2022-09-22T08:10:42.365Z,100.00
2022-09-22T08:15:44.204Z,100.00
2022-09-22T08:20:45.905Z,100.00
2022-09-22T08:25:47.535Z,100.00
2022-09-22T08:30:49.196Z,100.00
2022-09-22T08:35:53.888Z,100.00
2022-09-22T08:41:12.482Z,100.00
2022-09-22T08:46:14.133Z,100.00
2022-09-22T08:51:38.961Z,100.00
2022-09-22T08:57:04.078Z,100.00
2022-09-22T09:02:27.611Z,99.40
2022-09-22T09:07:56.775Z,96.83
2022-09-22T09:13:20.757Z,95.28
2022-09-22T09:18:25.809Z,92.62
2022-09-22T09:29:03.811Z,88.34
2022-09-22T09:34:12.087Z,90.12
2022-09-22T09:39:45.696Z,89.95
2022-09-22T09:44:53.409Z,88.68
2022-09-22T09:49:55.094Z,88.95
2022-09-22T09:54:56.913Z,87.61
2022-09-22T10:00:32.079Z,87.79
2022-09-22T10:05:37.394Z,86.50
2022-09-22T10:10:38.994Z,85.46
2022-09-22T10:15:41.375Z,84.28
2022-09-22T10:20:43.027Z,81.98
2022-09-22T10:25:44.693Z,84.10
2022-09-22T10:31:04.350Z,81.64
2022-09-22T10:36:12.135Z,80.96
2022-09-22T10:41:19.291Z,79.18
2022-09-22T10:46:34.718Z,78.03
2022-09-22T10:51:56.489Z,75.78
2022-09-22T10:57:08.983Z,72.58
2022-09-22T11:02:48.565Z,72.64
2022-09-22T11:08:25.515Z,70.74
2022-09-22T11:13:41.100Z,68.22
2022-09-22T11:19:01.875Z,69.52
2022-09-22T11:24:26.299Z,69.95
2022-09-22T11:29:45.265Z,70.78
2022-09-22T11:34:52.853Z,67.21
2022-09-22T11:40:13.206Z,65.29
2022-09-22T11:45:22.012Z,66.52
2022-09-22T11:50:24.873Z,64.63
2022-09-22T11:55:34.095Z,64.92
2022-09-22T12:00:39.115Z,60.63
2022-09-22T12:05:47.344Z,62.02
2022-09-22T12:10:50.203Z,62.32
2022-09-22T12:16:25.708Z,57.65
2022-09-22T12:21:53.840Z,54.92
2022-09-22T12:26:55.472Z,56.80
2022-09-22T12:31:58.879Z,52.78
2022-09-22T12:37:12.328Z,50.63
2022-09-22T12:42:33.355Z,52.42
2022-09-22T12:47:39.407Z,50.37
2022-09-22T12:52:40.862Z,50.84
2022-09-22T12:57:50.289Z,48.30
2022-09-22T13:02:51.950Z,46.20
2022-09-22T13:07:54.192Z,44.87
2022-09-22T13:13:10.454Z,46.82
2022-09-22T13:18:29.001Z,48.94
2022-09-22T13:23:30.653Z,47.92
2022-09-22T13:28:32.296Z,43.61
2022-09-22T13:33:34.782Z,43.78
2022-09-22T13:38:43.868Z,43.10
2022-09-22T13:43:48.249Z,44.56
2022-09-22T13:48:50.009Z,41.35
2022-09-22T13:53:53.171Z,42.41
2022-09-22T13:58:56.844Z,43.96
2022-09-22T14:03:58.497Z,42.78
2022-09-22T14:09:01.519Z,43.18
2022-09-22T14:14:03.382Z,43.24
2022-09-22T14:19:15.602Z,45.64
2022-09-22T14:24:17.271Z,46.88
2022-09-22T14:29:26.860Z,47.72
2022-09-22T14:34:33.386Z,48.23
2022-09-22T14:39:35.026Z,48.55
2022-09-22T14:44:44.652Z,50.40
2022-09-22T14:49:47.518Z,51.50
2022-09-22T14:54:49.369Z,52.88
2022-09-22T15:00:14.241Z,54.28
2022-09-22T15:05:29.409Z,55.75
2022-09-22T15:10:32.230Z,55.54
2022-09-22T15:15:33.855Z,57.22
2022-09-22T15:20:51.561Z,56.46
2022-09-22T15:25:53.855Z,56.75
2022-09-22T15:30:55.721Z,58.57
2022-09-22T15:36:02.280Z,58.40
2022-09-22T15:41:03.948Z,59.88
2022-09-22T15:46:08.786Z,61.03
2022-09-22T15:51:12.285Z,61.86
2022-09-22T15:56:20.751Z,61.23
2022-09-22T16:01:22.656Z,62.77
2022-09-22T16:06:24.335Z,62.42
2022-09-22T16:11:32.192Z,62.25
2022-09-22T16:16:34.978Z,61.88
2022-09-22T16:21:38.229Z,62.17
2022-09-22T16:26:40.027Z,61.63
2022-09-22T16:31:41.749Z,60.94
2022-09-22T16:36:44.540Z,61.23
2022-09-22T16:41:46.273Z,62.63
2022-09-22T16:46:47.986Z,62.91
2022-09-22T16:51:50.475Z,61.71
2022-09-22T16:56:53.758Z,62.61
2022-09-22T17:01:56.292Z,63.38
2022-09-22T17:06:58.253Z,62.84
2022-09-22T17:12:00.813Z,64.43
2022-09-22T17:17:06.521Z,65.55
2022-09-22T17:22:08.115Z,66.95
2022-09-22T17:27:09.689Z,67.58
2022-09-22T17:32:11.279Z,68.63
2022-09-22T17:37:15.492Z,70.61
2022-09-22T17:42:17.125Z,70.93
2022-09-22T17:47:37.536Z,71.40
2022-09-22T17:52:57.431Z,73.04
2022-09-22T17:57:59.071Z,75.00
2022-09-22T18:03:02.181Z,76.03
2022-09-22T18:08:03.836Z,76.10
2022-09-22T18:13:05.484Z,77.24
2022-09-22T18:18:07.124Z,78.02
2022-09-22T18:23:08.821Z,79.10
2022-09-22T18:28:10.473Z,80.35
2022-09-22T18:33:12.879Z,79.57
2022-09-22T18:38:14.509Z,80.89
2022-09-22T18:43:16.135Z,81.64
2022-09-22T18:48:18.354Z,81.91
2022-09-22T18:53:22.040Z,82.83
2022-09-22T18:58:23.689Z,83.13
2022-09-22T19:03:25.390Z,84.71
2022-09-22T19:08:27.210Z,84.41
2022-09-22T19:13:28.949Z,84.99
2022-09-22T19:18:31.499Z,85.85
2022-09-22T19:23:33.872Z,87.11
2022-09-22T19:28:35.560Z,87.16
2022-09-22T19:33:37.196Z,87.76
2022-09-22T19:38:38.807Z,88.37
2022-09-22T19:43:40.431Z,89.08
2022-09-22T19:48:42.025Z,89.87
2022-09-22T19:53:43.632Z,88.92
2022-09-22T19:58:45.278Z,89.36
2022-09-22T20:03:46.877Z,89.38
2022-09-22T20:08:49.248Z,89.71
2022-09-22T20:14:11.409Z,90.44
2022-09-22T20:19:13.167Z,90.45
2022-09-22T20:24:16.557Z,90.98
2022-09-22T20:29:18.948Z,90.74
2022-09-22T20:34:20.622Z,90.16
2022-09-22T20:39:22.300Z,89.38
2022-09-22T20:44:23.914Z,89.65
2022-09-22T20:49:26.002Z,89.73
2022-09-22T20:54:27.611Z,90.18
2022-09-22T20:59:29.257Z,89.84
2022-09-22T21:04:30.926Z,89.57
2022-09-22T21:09:51.209Z,89.27
2022-09-22T21:14:52.945Z,89.06
2022-09-22T21:19:57.080Z,88.50
2022-09-22T21:24:58.696Z,88.40
2022-09-22T21:30:00.313Z,87.99
2022-09-22T21:35:02.851Z,88.34
2022-09-22T21:40:04.811Z,88.19
2022-09-22T21:45:06.884Z,87.45
2022-09-22T21:50:08.961Z,88.43
2022-09-22T21:55:10.693Z,88.37
2022-09-22T22:00:13.231Z,88.11
2022-09-22T22:05:15.226Z,88.85
2022-09-22T22:10:17.206Z,89.20
2022-09-22T22:15:18.874Z,89.55
2022-09-22T22:20:20.913Z,89.68
2022-09-22T22:25:22.562Z,89.61
2022-09-22T22:30:24.193Z,90.02
2022-09-22T22:35:25.945Z,90.01
2022-09-22T22:40:27.843Z,90.16
2022-09-22T22:45:29.554Z,90.83
2022-09-22T22:50:31.208Z,91.03
2022-09-22T22:55:32.857Z,90.91
2022-09-22T23:00:34.533Z,91.59
2022-09-22T23:05:40.827Z,92.01
2022-09-22T23:10:44.577Z,92.23
2022-09-22T23:15:46.255Z,92.30
2022-09-22T23:20:47.895Z,91.97
2022-09-22T23:25:49.909Z,92.51
2022-09-22T23:31:07.765Z,93.16
2022-09-22T23:36:15.567Z,93.35
2022-09-22T23:41:17.176Z,94.14
2022-09-22T23:46:19.958Z,94.67
2022-09-22T23:51:21.655Z,95.25
2022-09-22T23:56:23.521Z,95.41
